Saturday, January 19, 2019, 8:30 PM EST
Back to Local

KDXR, Danbury Municipal Airport

Location: Danbury, CT, United States Lat: 41.367
Local Time: 8:30 PM EST ( 1:30 GMT) Lon: -73.483
Time Zone: US/Eastern Elev: 459 ft

Show me the last for .
Show Coded

Time T Td Feel RH Dir Speed Gust Alt SLP Vis Weather Sky Remarks
2019-01-19 20:10 31 28 24 88 80° 7 - 30.04 - 1 -SN BR OVC011 1-hr Precip Total: Trace
2019-01-19 19:53 32 26 24 78 60° 9 - 30.04 30.05 2 -SN OVC013 Pressure falling rapidly
1-hr Precip Total: Trace
2019-01-19 18:53 33 25 28 71 100° 6 - 30.10 30.11 10 OVC022 6-hr Min Temp (7pm): 32.0°F
6-hr Max Temp (7pm): 33.1°F
2019-01-19 18:21 33 24 28 69 100° 6 - 30.11 - 10 BKN028 OVC033 None
2019-01-19 18:07 33 23 28 66 100° 6 - 30.12 - 10 OVC031 None
2019-01-19 17:53 33 22 29 63 110° 5 - 30.12 30.14 10 OVC029 None
2019-01-19 17:44 33 22 27 63 100° 7 - 30.12 - 10 BKN028 OVC034 None
2019-01-19 16:53 32 20 25 60 90° 8 - 30.12 30.14 10 OVC036 None
2019-01-19 15:53 33 19 26 55 110° 8 - 30.17 30.19 10 OVC039 None
2019-01-19 14:53 33 19 25 55 150° 10 - 30.17 30.19 10 OVC038 None
2019-01-19 13:53 33 17 27 51 90° 7 - 30.16 30.18 10 OVC042 None
2019-01-19 12:53 33 16 27 48 100° 7 - 30.20 30.21 10 OVC043 6-hr Min Temp (1pm): 19.0°F
6-hr Max Temp (1pm): 33.1°F
2019-01-19 11:53 32 17 25 53 60° 8 - 30.24 30.25 10 OVC042 None
2019-01-19 10:53 31 19 - 60 - Calm - 30.28 30.29 10 OVC040 None
2019-01-19 09:53 30 23 26 74 Variable 3 - 30.27 30.28 10 OVC040 None
2019-01-19 08:53 25 22 - 87 - Calm - 30.27 30.28 9 OVC041 None
2019-01-19 07:53 20 17 - 88 - Calm - 30.22 30.24 8 FEW042 None
2019-01-19 06:53 20 17 - 88 - Calm - 30.22 30.23 8 CLR 6-hr Min Temp (7am): 19.0°F
6-hr Max Temp (7am): 28.0°F
2019-01-19 05:53 20 17 - 88 - Calm - 30.22 30.23 8 FEW044 None
2019-01-19 04:53 20 18 - 91 - Calm - 30.19 30.20 7 CLR None
2019-01-19 03:53 21 18 - 87 - Calm - 30.19 30.20 7 BKN040 None
2019-01-19 02:53 23 21 - 91 - Calm - 30.20 30.21 8 CLR None
2019-01-19 01:53 25 21 - 84 - Calm - 30.17 30.18 6 BR CLR None
2019-01-19 00:53 26 23 - 87 - Calm - 30.15 30.16 7 CLR 6-hr Min Temp (1am): 26.1°F
6-hr Max Temp (1am): 34.0°F
2019-01-18 23:53 32 25 - 74 - Calm - 30.14 30.15 10 SCT042 24-hr Min Temp (12am): 24.1°F
24-hr Max Temp (12am): 37.9°F
2019-01-18 23:17 33 26 - 75 - Calm - 30.15 - 10 SCT026 BKN035 BKN045 None
2019-01-18 22:53 33 27 30 77 330° 3 - 30.15 30.16 10 OVC026 None
2019-01-18 22:38 34 27 31 75 330° 3 - 30.14 - 10 BKN026 OVC041 None
2019-01-18 21:53 32 28 - 85 - Calm - 30.12 30.13 9 OVC038 None
2019-01-18 20:53 30 26 26 84 240° 3 - 30.09 30.11 8 BKN037 None

Support USWX by starting your Amazon purchase here.